sensor_id;sensor_type;location;lat;lon;timestamp;pressure;altitude;pressure_sealevel;temperature;humidity
43553;BME280;29153;42.696;23.218;2023-08-07T00:00:13;93913.76;;;15.53;93.29
43553;BME280;29153;42.696;23.218;2023-08-07T00:02:40;93914.06;;;15.51;93.16
43553;BME280;29153;42.696;23.218;2023-08-07T00:05:08;93919.78;;;15.47;92.93
43553;BME280;29153;42.696;23.218;2023-08-07T00:07:36;93910.13;;;15.48;93.16
43553;BME280;29153;42.696;23.218;2023-08-07T00:10:04;93915.16;;;15.41;93.31
43553;BME280;29153;42.696;23.218;2023-08-07T00:12:32;93909.57;;;15.40;92.77
43553;BME280;29153;42.696;23.218;2023-08-07T00:15:00;93918.54;;;15.44;92.86
43553;BME280;29153;42.696;23.218;2023-08-07T00:17:27;93917.98;;;15.36;93.45
43553;BME280;29153;42.696;23.218;2023-08-07T00:19:55;93919.72;;;15.32;93.60
43553;BME280;29153;42.696;23.218;2023-08-07T00:22:22;93916.59;;;15.30;93.63
43553;BME280;29153;42.696;23.218;2023-08-07T00:24:51;93921.23;;;15.36;93.58
43553;BME280;29153;42.696;23.218;2023-08-07T00:27:19;93916.78;;;15.17;94.96
43553;BME280;29153;42.696;23.218;2023-08-07T00:29:46;93918.50;;;15.21;94.90
43553;BME280;29153;42.696;23.218;2023-08-07T00:32:14;93908.92;;;15.20;95.04
43553;BME280;29153;42.696;23.218;2023-08-07T00:34:42;93919.83;;;15.21;95.18
43553;BME280;29153;42.696;23.218;2023-08-07T00:37:09;93925.41;;;15.22;94.81
43553;BME280;29153;42.696;23.218;2023-08-07T00:39:37;93918.02;;;15.19;94.87
43553;BME280;29153;42.696;23.218;2023-08-07T00:42:05;93928.69;;;15.19;94.78
43553;BME280;29153;42.696;23.218;2023-08-07T00:44:32;93927.30;;;15.13;95.00
43553;BME280;29153;42.696;23.218;2023-08-07T00:47:00;93921.19;;;15.04;95.56
43553;BME280;29153;42.696;23.218;2023-08-07T00:49:28;93920.00;;;15.08;95.46
43553;BME280;29153;42.696;23.218;2023-08-07T00:51:56;93912.93;;;15.12;95.76
43553;BME280;29153;42.696;23.218;2023-08-07T00:54:24;93916.63;;;15.13;95.82
43553;BME280;29153;42.696;23.218;2023-08-07T00:56:52;93924.01;;;14.99;97.01
43553;BME280;29153;42.696;23.218;2023-08-07T00:59:20;93929.28;;;15.01;97.08
43553;BME280;29153;42.696;23.218;2023-08-07T01:01:49;93933.64;;;14.97;97.66
43553;BME280;29153;42.696;23.218;2023-08-07T01:04:17;93942.22;;;15.06;97.41
43553;BME280;29153;42.696;23.218;2023-08-07T01:06:44;93947.16;;;14.92;97.69
43553;BME280;29153;42.696;23.218;2023-08-07T01:09:12;93954.63;;;14.93;98.00
43553;BME280;29153;42.696;23.218;2023-08-07T01:11:45;93955.08;;;14.86;98.16
43553;BME280;29153;42.696;23.218;2023-08-07T01:14:51;93963.70;;;14.75;98.18
43553;BME280;29153;42.696;23.218;2023-08-07T01:17:20;93964.25;;;14.74;98.20
43553;BME280;29153;42.696;23.218;2023-08-07T01:19:51;93967.36;;;14.68;98.34
43553;BME280;29153;42.696;23.218;2023-08-07T01:22:21;93967.80;;;14.44;99.42
43553;BME280;29153;42.696;23.218;2023-08-07T01:24:50;93967.80;;;14.44;99.42
43553;BME280;29153;42.696;23.218;2023-08-07T01:29:59;93931.17;;;14.10;100.00
43553;BME280;29153;42.696;23.218;2023-08-07T01:35:23;93966.38;;;14.18;100.00
43553;BME280;29153;42.696;23.218;2023-08-07T01:37:57;93967.34;;;14.02;100.00
43553;BME280;29153;42.696;23.218;2023-08-07T01:40:28;93964.25;;;14.18;100.00
43553;BME280;29153;42.696;23.218;2023-08-07T01:42:56;93967.25;;;14.16;100.00
43553;BME280;29153;42.696;23.218;2023-08-07T01:45:25;93966.39;;;13.98;100.00
43553;BME280;29153;42.696;23.218;2023-08-07T01:47:53;93971.77;;;13.96;100.00
43553;BME280;29153;42.696;23.218;2023-08-07T01:50:23;93966.63;;;13.80;100.00
43553;BME280;29153;42.696;23.218;2023-08-07T01:52:51;93972.19;;;13.81;100.00
43553;BME280;29153;42.696;23.218;2023-08-07T01:55:20;93970.07;;;13.80;100.00
43553;BME280;29153;42.696;23.218;2023-08-07T01:57:48;93973.52;;;13.81;100.00
43553;BME280;29153;42.696;23.218;2023-08-07T02:00:16;93971.98;;;13.68;100.00
43553;BME280;29153;42.696;23.218;2023-08-07T02:02:44;93970.11;;;13.58;100.00
43553;BME280;29153;42.696;23.218;2023-08-07T02:05:15;93971.69;;;13.48;100.00
43553;BME280;29153;42.696;23.218;2023-08-07T02:07:43;93972.20;;;13.28;100.00
43553;BME280;29153;42.696;23.218;2023-08-07T02:10:11;93970.86;;;13.28;100.00
43553;BME280;29153;42.696;23.218;2023-08-07T02:12:39;93985.81;;;13.26;100.00
43553;BME280;29153;42.696;23.218;2023-08-07T02:15:07;93983.38;;;13.27;100.00
43553;BME280;29153;42.696;23.218;2023-08-07T02:17:34;93984.70;;;13.27;100.00
43553;BME280;29153;42.696;23.218;2023-08-07T02:20:04;93992.58;;;13.21;100.00
43553;BME280;29153;42.696;23.218;2023-08-07T02:22:32;93995.05;;;13.29;100.00
43553;BME280;29153;42.696;23.218;2023-08-07T02:24:59;93995.59;;;13.28;100.00
43553;BME280;29153;42.696;23.218;2023-08-07T02:27:27;93996.31;;;13.31;100.00
43553;BME280;29153;42.696;23.218;2023-08-07T02:29:55;94006.83;;;13.36;100.00
43553;BME280;29153;42.696;23.218;2023-08-07T02:32:22;94004.49;;;13.35;100.00
43553;BME280;29153;42.696;23.218;2023-08-07T02:34:50;94007.97;;;13.44;100.00
43553;BME280;29153;42.696;23.218;2023-08-07T02:37:17;93998.50;;;13.51;100.00
43553;BME280;29153;42.696;23.218;2023-08-07T02:39:47;94005.20;;;13.49;100.00
43553;BME280;29153;42.696;23.218;2023-08-07T02:42:14;94001.38;;;13.52;100.00
43553;BME280;29153;42.696;23.218;2023-08-07T02:44:42;93998.62;;;13.46;100.00
43553;BME280;29153;42.696;23.218;2023-08-07T02:47:10;93996.91;;;13.39;100.00
43553;BME280;29153;42.696;23.218;2023-08-07T02:49:37;94000.36;;;13.40;100.00
43553;BME280;29153;42.696;23.218;2023-08-07T02:52:05;93999.64;;;13.37;100.00
43553;BME280;29153;42.696;23.218;2023-08-07T02:54:33;94004.17;;;13.36;100.00
43553;BME280;29153;42.696;23.218;2023-08-07T02:57:00;94004.17;;;13.36;100.00
43553;BME280;29153;42.696;23.218;2023-08-07T02:59:28;93995.72;;;13.34;100.00
43553;BME280;29153;42.696;23.218;2023-08-07T03:01:56;94006.22;;;13.39;100.00
43553;BME280;29153;42.696;23.218;2023-08-07T03:04:24;94006.05;;;13.36;100.00
43553;BME280;29153;42.696;23.218;2023-08-07T03:06:52;94009.14;;;13.29;100.00
43553;BME280;29153;42.696;23.218;2023-08-07T03:09:19;94009.14;;;13.29;100.00
43553;BME280;29153;42.696;23.218;2023-08-07T03:11:47;94015.08;;;13.26;100.00
43553;BME280;29153;42.696;23.218;2023-08-07T03:14:16;94018.14;;;13.19;100.00
43553;BME280;29153;42.696;23.218;2023-08-07T03:16:45;94026.83;;;13.22;100.00
43553;BME280;29153;42.696;23.218;2023-08-07T03:19:13;94026.83;;;13.22;100.00
43553;BME280;29153;42.696;23.218;2023-08-07T03:21:40;94030.83;;;13.22;100.00
43553;BME280;29153;42.696;23.218;2023-08-07T03:24:08;94031.98;;;13.19;100.00
43553;BME280;29153;42.696;23.218;2023-08-07T03:26:35;94031.98;;;13.19;100.00
43553;BME280;29153;42.696;23.218;2023-08-07T03:29:03;94032.41;;;13.12;100.00
43553;BME280;29153;42.696;23.218;2023-08-07T03:31:31;94032.41;;;13.12;100.00
43553;BME280;29153;42.696;23.218;2023-08-07T03:33:58;94034.28;;;13.09;100.00
43553;BME280;29153;42.696;23.218;2023-08-07T03:36:26;94045.81;;;13.18;100.00
43553;BME280;29153;42.696;23.218;2023-08-07T03:38:53;94049.41;;;13.25;100.00
43553;BME280;29153;42.696;23.218;2023-08-07T03:41:21;94049.41;;;13.25;100.00
43553;BME280;29153;42.696;23.218;2023-08-07T03:43:49;94064.28;;;13.37;100.00
43553;BME280;29153;42.696;23.218;2023-08-07T03:46:16;94064.28;;;13.37;100.00
43553;BME280;29153;42.696;23.218;2023-08-07T03:48:44;94062.70;;;13.36;100.00
43553;BME280;29153;42.696;23.218;2023-08-07T03:51:12;94062.70;;;13.36;100.00
43553;BME280;29153;42.696;23.218;2023-08-07T03:53:41;94075.16;;;13.49;100.00
43553;BME280;29153;42.696;23.218;2023-08-07T03:56:08;94065.75;;;13.43;100.00
43553;BME280;29153;42.696;23.218;2023-08-07T03:58:36;94078.55;;;13.52;100.00
43553;BME280;29153;42.696;23.218;2023-08-07T04:01:04;94082.80;;;13.42;100.00
43553;BME280;29153;42.696;23.218;2023-08-07T04:03:32;94082.80;;;13.42;100.00
43553;BME280;29153;42.696;23.218;2023-08-07T04:05:59;94084.11;;;13.53;100.00
43553;BME280;29153;42.696;23.218;2023-08-07T04:08:28;94085.20;;;13.52;100.00
43553;BME280;29153;42.696;23.218;2023-08-07T04:11:05;94089.68;;;13.65;100.00
43553;BME280;29153;42.696;23.218;2023-08-07T04:13:34;94090.64;;;13.69;100.00
43553;BME280;29153;42.696;23.218;2023-08-07T04:16:01;94094.38;;;13.91;100.00
43553;BME280;29153;42.696;23.218;2023-08-07T04:18:31;94091.23;;;14.00;100.00
43553;BME280;29153;42.696;23.218;2023-08-07T04:20:59;94096.86;;;14.09;100.00
43553;BME280;29153;42.696;23.218;2023-08-07T04:23:27;94098.69;;;14.31;100.00
43553;BME280;29153;42.696;23.218;2023-08-07T04:25:54;94099.05;;;14.49;100.00
43553;BME280;29153;42.696;23.218;2023-08-07T04:28:23;94099.02;;;14.69;100.00
43553;BME280;29153;42.696;23.218;2023-08-07T04:30:51;94099.22;;;14.81;100.00
43553;BME280;29153;42.696;23.218;2023-08-07T04:33:19;94101.14;;;14.98;100.00
43553;BME280;29153;42.696;23.218;2023-08-07T04:35:47;94114.58;;;15.04;100.00
43553;BME280;29153;42.696;23.218;2023-08-07T04:38:16;94111.05;;;15.15;100.00
43553;BME280;29153;42.696;23.218;2023-08-07T04:40:47;94109.43;;;15.25;100.00
43553;BME280;29153;42.696;23.218;2023-08-07T04:43:16;94113.17;;;15.15;99.32
43553;BME280;29153;42.696;23.218;2023-08-07T04:45:44;94113.44;;;15.33;98.84
43553;BME280;29153;42.696;23.218;2023-08-07T04:48:12;94113.13;;;15.26;99.48
43553;BME280;29153;42.696;23.218;2023-08-07T04:50:40;94111.86;;;15.32;98.53
43553;BME280;29153;42.696;23.218;2023-08-07T04:53:07;94117.31;;;15.47;98.03
43553;BME280;29153;42.696;23.218;2023-08-07T04:55:35;94111.42;;;15.47;97.63
43553;BME280;29153;42.696;23.218;2023-08-07T04:58:03;94113.15;;;15.43;97.57
43553;BME280;29153;42.696;23.218;2023-08-07T05:00:30;94115.09;;;15.49;97.93
43553;BME280;29153;42.696;23.218;2023-08-07T05:02:58;94117.22;;;15.49;97.16
43553;BME280;29153;42.696;23.218;2023-08-07T05:05:26;94105.56;;;15.82;96.87
43553;BME280;29153;42.696;23.218;2023-08-07T05:07:55;94105.56;;;15.82;96.87
43553;BME280;29153;42.696;23.218;2023-08-07T05:10:24;94104.13;;;15.85;95.66
43553;BME280;29153;42.696;23.218;2023-08-07T05:12:52;94111.30;;;15.87;93.77
43553;BME280;29153;42.696;23.218;2023-08-07T05:15:23;94099.88;;;15.84;94.49
43553;BME280;29153;42.696;23.218;2023-08-07T05:17:51;94100.20;;;15.91;93.99
43553;BME280;29153;42.696;23.218;2023-08-07T05:20:19;94101.74;;;16.01;93.97
43553;BME280;29153;42.696;23.218;2023-08-07T05:22:47;94097.51;;;16.08;93.06
43553;BME280;29153;42.696;23.218;2023-08-07T05:25:15;94103.28;;;16.19;92.62
43553;BME280;29153;42.696;23.218;2023-08-07T05:27:46;94096.46;;;16.15;92.90
43553;BME280;29153;42.696;23.218;2023-08-07T05:30:14;94101.27;;;16.07;91.81
43553;BME280;29153;42.696;23.218;2023-08-07T05:32:41;94108.56;;;16.21;92.30
43553;BME280;29153;42.696;23.218;2023-08-07T05:35:09;94110.75;;;16.19;92.53
43553;BME280;29153;42.696;23.218;2023-08-07T05:37:36;94111.14;;;16.24;92.36
43553;BME280;29153;42.696;23.218;2023-08-07T05:40:05;94112.17;;;16.25;92.85
43553;BME280;29153;42.696;23.218;2023-08-07T05:42:33;94116.94;;;16.26;91.89
43553;BME280;29153;42.696;23.218;2023-08-07T05:45:02;94122.22;;;16.28;90.71
43553;BME280;29153;42.696;23.218;2023-08-07T05:47:31;94114.00;;;16.42;91.36
43553;BME280;29153;42.696;23.218;2023-08-07T05:49:59;94117.09;;;16.38;91.50
43553;BME280;29153;42.696;23.218;2023-08-07T05:52:27;94115.80;;;16.44;91.02
43553;BME280;29153;42.696;23.218;2023-08-07T05:54:54;94124.88;;;16.52;90.57
43553;BME280;29153;42.696;23.218;2023-08-07T05:57:22;94122.00;;;16.51;90.83
43553;BME280;29153;42.696;23.218;2023-08-07T05:59:50;94115.86;;;16.59;90.41
43553;BME280;29153;42.696;23.218;2023-08-07T06:02:17;94114.53;;;16.59;88.97
43553;BME280;29153;42.696;23.218;2023-08-07T06:04:45;94113.56;;;16.78;88.77
43553;BME280;29153;42.696;23.218;2023-08-07T06:07:13;94107.67;;;16.78;90.41
43553;BME280;29153;42.696;23.218;2023-08-07T06:09:41;94114.97;;;16.84;88.50
43553;BME280;29153;42.696;23.218;2023-08-07T06:12:09;94114.80;;;16.89;85.91
43553;BME280;29153;42.696;23.218;2023-08-07T06:14:37;94108.09;;;17.04;87.68
43553;BME280;29153;42.696;23.218;2023-08-07T06:17:05;94110.03;;;17.09;86.85
43553;BME280;29153;42.696;23.218;2023-08-07T06:19:33;94099.03;;;17.17;86.60
43553;BME280;29153;42.696;23.218;2023-08-07T06:22:00;94105.60;;;17.13;84.62
43553;BME280;29153;42.696;23.218;2023-08-07T06:24:28;94101.90;;;17.12;83.82
43553;BME280;29153;42.696;23.218;2023-08-07T06:26:56;94101.16;;;17.17;84.10
43553;BME280;29153;42.696;23.218;2023-08-07T06:29:23;94100.43;;;17.23;85.15
43553;BME280;29153;42.696;23.218;2023-08-07T06:31:51;94099.22;;;17.26;85.18
43553;BME280;29153;42.696;23.218;2023-08-07T06:34:19;94095.03;;;17.38;82.55
43553;BME280;29153;42.696;23.218;2023-08-07T06:36:46;94115.84;;;17.47;75.78
43553;BME280;29153;42.696;23.218;2023-08-07T06:39:14;94109.09;;;17.55;77.57
43553;BME280;29153;42.696;23.218;2023-08-07T06:41:41;94118.90;;;17.66;75.57
43553;BME280;29153;42.696;23.218;2023-08-07T06:44:09;94111.38;;;17.59;76.35
43553;BME280;29153;42.696;23.218;2023-08-07T06:46:37;94117.59;;;17.57;76.68
43553;BME280;29153;42.696;23.218;2023-08-07T06:49:04;94115.12;;;17.67;77.91
43553;BME280;29153;42.696;23.218;2023-08-07T06:51:32;94114.70;;;17.77;78.08
43553;BME280;29153;42.696;23.218;2023-08-07T06:53:59;94111.40;;;17.86;76.98
43553;BME280;29153;42.696;23.218;2023-08-07T06:56:27;94116.80;;;17.98;76.77
43553;BME280;29153;42.696;23.218;2023-08-07T06:58:55;94121.09;;;18.11;74.60
43553;BME280;29153;42.696;23.218;2023-08-07T07:01:22;94113.26;;;18.06;75.90
43553;BME280;29153;42.696;23.218;2023-08-07T07:03:50;94110.81;;;18.07;75.10
43553;BME280;29153;42.696;23.218;2023-08-07T07:06:19;94113.00;;;18.26;75.38
43553;BME280;29153;42.696;23.218;2023-08-07T07:08:47;94121.92;;;18.24;70.45
43553;BME280;29153;42.696;23.218;2023-08-07T07:11:15;94124.42;;;18.35;70.00
43553;BME280;29153;42.696;23.218;2023-08-07T07:13:42;94131.95;;;18.48;70.52
43553;BME280;29153;42.696;23.218;2023-08-07T07:16:10;94129.59;;;18.46;69.31
43553;BME280;29153;42.696;23.218;2023-08-07T07:18:39;94125.89;;;18.39;66.65
43553;BME280;29153;42.696;23.218;2023-08-07T07:21:06;94121.42;;;18.49;68.74
43553;BME280;29153;42.696;23.218;2023-08-07T07:23:34;94125.28;;;18.66;71.41
43553;BME280;29153;42.696;23.218;2023-08-07T07:26:03;94115.00;;;18.74;68.91
43553;BME280;29153;42.696;23.218;2023-08-07T07:28:31;94116.13;;;18.67;67.36
43553;BME280;29153;42.696;23.218;2023-08-07T07:30:58;94113.46;;;18.73;66.73
43553;BME280;29153;42.696;23.218;2023-08-07T07:33:26;94107.88;;;18.78;68.04
43553;BME280;29153;42.696;23.218;2023-08-07T07:35:53;94112.34;;;18.92;66.92
43553;BME280;29153;42.696;23.218;2023-08-07T07:38:21;94097.68;;;18.96;68.21
43553;BME280;29153;42.696;23.218;2023-08-07T07:40:48;94103.61;;;19.14;67.07
43553;BME280;29153;42.696;23.218;2023-08-07T07:43:16;94104.74;;;19.06;61.24
43553;BME280;29153;42.696;23.218;2023-08-07T07:45:44;94118.39;;;19.20;64.36
43553;BME280;29153;42.696;23.218;2023-08-07T07:48:12;94112.13;;;19.46;65.12
43553;BME280;29153;42.696;23.218;2023-08-07T07:50:39;94121.23;;;19.69;63.86
43553;BME280;29153;42.696;23.218;2023-08-07T07:53:07;94120.12;;;19.76;61.56
43553;BME280;29153;42.696;23.218;2023-08-07T07:55:34;94124.71;;;20.04;62.89
43553;BME280;29153;42.696;23.218;2023-08-07T07:58:04;94120.05;;;20.22;59.73
43553;BME280;29153;42.696;23.218;2023-08-07T08:00:31;94116.82;;;20.66;62.57
43553;BME280;29153;42.696;23.218;2023-08-07T08:03:00;94111.72;;;21.02;58.96
43553;BME280;29153;42.696;23.218;2023-08-07T08:05:29;94102.86;;;21.33;58.68
43553;BME280;29153;42.696;23.218;2023-08-07T08:07:57;94098.75;;;21.84;59.91
43553;BME280;29153;42.696;23.218;2023-08-07T08:10:25;94103.14;;;22.49;58.45
43553;BME280;29153;42.696;23.218;2023-08-07T08:12:54;94106.80;;;22.80;52.62
43553;BME280;29153;42.696;23.218;2023-08-07T08:15:21;94111.98;;;22.79;50.54
43553;BME280;29153;42.696;23.218;2023-08-07T08:17:49;94098.73;;;23.19;50.95
43553;BME280;29153;42.696;23.218;2023-08-07T08:20:16;94094.70;;;23.58;54.39
43553;BME280;29153;42.696;23.218;2023-08-07T08:22:45;94099.69;;;23.83;48.71
43553;BME280;29153;42.696;23.218;2023-08-07T08:25:13;94091.69;;;23.93;47.42
43553;BME280;29153;42.696;23.218;2023-08-07T08:27:43;94084.06;;;24.53;50.23
43553;BME280;29153;42.696;23.218;2023-08-07T08:30:11;94038.66;;;24.56;50.56
43553;BME280;29153;42.696;23.218;2023-08-07T08:32:39;94090.60;;;25.09;47.72
43553;BME280;29153;42.696;23.218;2023-08-07T08:35:07;94085.96;;;24.48;45.50
43553;BME280;29153;42.696;23.218;2023-08-07T08:37:36;94085.29;;;24.79;45.51
43553;BME280;29153;42.696;23.218;2023-08-07T08:40:03;94082.24;;;24.84;48.55
43553;BME280;29153;42.696;23.218;2023-08-07T08:42:32;94079.86;;;25.19;46.00
43553;BME280;29153;42.696;23.218;2023-08-07T08:45:01;94077.21;;;25.54;46.91
43553;BME280;29153;42.696;23.218;2023-08-07T08:47:30;94077.33;;;25.75;44.58
43553;BME280;29153;42.696;23.218;2023-08-07T08:50:09;94068.50;;;25.92;46.87
43553;BME280;29153;42.696;23.218;2023-08-07T08:52:41;94077.00;;;25.87;44.10
43553;BME280;29153;42.696;23.218;2023-08-07T08:55:09;94068.58;;;26.13;44.29
43553;BME280;29153;42.696;23.218;2023-08-07T08:57:38;94064.50;;;26.13;43.56
43553;BME280;29153;42.696;23.218;2023-08-07T09:00:07;94063.82;;;26.34;44.08
43553;BME280;29153;42.696;23.218;2023-08-07T09:02:37;94070.27;;;25.63;42.57
43553;BME280;29153;42.696;23.218;2023-08-07T09:05:05;94065.24;;;26.07;45.42
43553;BME280;29153;42.696;23.218;2023-08-07T09:07:36;94075.22;;;26.23;42.43
43553;BME280;29153;42.696;23.218;2023-08-07T09:10:06;94069.98;;;26.20;44.34
43553;BME280;29153;42.696;23.218;2023-08-07T09:12:37;94075.36;;;25.72;43.92
43553;BME280;29153;42.696;23.218;2023-08-07T09:15:07;94072.91;;;25.80;48.62
43553;BME280;29153;42.696;23.218;2023-08-07T09:17:40;94055.58;;;26.13;46.48
43553;BME280;29153;42.696;23.218;2023-08-07T09:20:10;94053.17;;;25.97;44.98
43553;BME280;29153;42.696;23.218;2023-08-07T09:22:43;94048.84;;;26.23;44.06
43553;BME280;29153;42.696;23.218;2023-08-07T09:25:11;94041.42;;;26.10;45.40
43553;BME280;29153;42.696;23.218;2023-08-07T09:27:40;94041.64;;;25.73;41.30
43553;BME280;29153;42.696;23.218;2023-08-07T09:30:08;94042.95;;;25.31;43.68
43553;BME280;29153;42.696;23.218;2023-08-07T09:32:41;94050.27;;;25.55;45.55
43553;BME280;29153;42.696;23.218;2023-08-07T09:35:08;94048.76;;;25.61;45.47
43553;BME280;29153;42.696;23.218;2023-08-07T09:37:39;94041.48;;;25.79;50.27
43553;BME280;29153;42.696;23.218;2023-08-07T09:40:09;94047.56;;;25.93;47.80
43553;BME280;29153;42.696;23.218;2023-08-07T09:42:38;94041.86;;;25.77;44.28
43553;BME280;29153;42.696;23.218;2023-08-07T09:45:18;94046.02;;;25.54;41.77
43553;BME280;29153;42.696;23.218;2023-08-07T09:47:34;94044.20;;;25.48;44.50
43553;BME280;29153;42.696;23.218;2023-08-07T09:50:02;94043.53;;;25.34;43.06
43553;BME280;29153;42.696;23.218;2023-08-07T09:52:30;94040.07;;;25.68;44.01
43553;BME280;29153;42.696;23.218;2023-08-07T09:54:57;94031.66;;;25.95;44.03
43553;BME280;29153;42.696;23.218;2023-08-07T09:57:24;94042.74;;;26.06;42.67
43553;BME280;29153;42.696;23.218;2023-08-07T09:59:52;94037.14;;;26.05;43.06
43553;BME280;29153;42.696;23.218;2023-08-07T10:02:23;94037.16;;;26.19;42.71
43553;BME280;29153;42.696;23.218;2023-08-07T10:04:51;94036.83;;;26.32;46.74
43553;BME280;29153;42.696;23.218;2023-08-07T10:07:21;94041.89;;;26.37;48.32
43553;BME280;29153;42.696;23.218;2023-08-07T10:09:49;94041.47;;;26.20;43.50
43553;BME280;29153;42.696;23.218;2023-08-07T10:12:17;94039.88;;;26.19;42.33
43553;BME280;29153;42.696;23.218;2023-08-07T10:14:45;94035.50;;;25.87;41.44
43553;BME280;29153;42.696;23.218;2023-08-07T10:17:13;94041.21;;;26.05;45.68
43553;BME280;29153;42.696;23.218;2023-08-07T10:19:41;94045.23;;;25.98;42.74
43553;BME280;29153;42.696;23.218;2023-08-07T10:22:12;94034.50;;;25.78;44.77
43553;BME280;29153;42.696;23.218;2023-08-07T10:24:41;94030.92;;;26.01;44.68
43553;BME280;29153;42.696;23.218;2023-08-07T10:27:11;94038.86;;;26.00;42.70
43553;BME280;29153;42.696;23.218;2023-08-07T10:29:41;94040.72;;;25.82;44.12
43553;BME280;29153;42.696;23.218;2023-08-07T10:32:10;94040.07;;;25.68;46.21
43553;BME280;29153;42.696;23.218;2023-08-07T10:34:40;94032.20;;;25.49;46.53
43553;BME280;29153;42.696;23.218;2023-08-07T10:37:07;94041.56;;;25.59;46.83
43553;BME280;29153;42.696;23.218;2023-08-07T10:39:35;94042.66;;;25.51;43.15
43553;BME280;29153;42.696;23.218;2023-08-07T10:42:04;94035.40;;;25.62;47.06
43553;BME280;29153;42.696;23.218;2023-08-07T10:44:33;94037.44;;;25.86;43.98
43553;BME280;29153;42.696;23.218;2023-08-07T10:47:02;94026.66;;;26.07;44.39
43553;BME280;29153;42.696;23.218;2023-08-07T10:49:34;94017.06;;;26.31;47.72
43553;BME280;29153;42.696;23.218;2023-08-07T10:52:04;94027.52;;;26.22;41.47
43553;BME280;29153;42.696;23.218;2023-08-07T10:54:28;94019.00;;;26.31;41.89
43553;BME280;29153;42.696;23.218;2023-08-07T10:56:56;94012.38;;;26.28;44.46
43553;BME280;29153;42.696;23.218;2023-08-07T10:59:23;94012.91;;;26.10;43.52
43553;BME280;29153;42.696;23.218;2023-08-07T11:01:55;94011.10;;;25.97;42.64
43553;BME280;29153;42.696;23.218;2023-08-07T11:04:23;94008.06;;;26.09;43.97
43553;BME280;29153;42.696;23.218;2023-08-07T11:06:53;94005.09;;;25.94;41.03
43553;BME280;29153;42.696;23.218;2023-08-07T11:09:21;93997.87;;;25.78;40.43
43553;BME280;29153;42.696;23.218;2023-08-07T11:11:48;94003.13;;;25.84;43.26
43553;BME280;29153;42.696;23.218;2023-08-07T11:14:18;93996.14;;;25.83;44.74
43553;BME280;29153;42.696;23.218;2023-08-07T11:16:47;93994.80;;;25.90;41.07
43553;BME280;29153;42.696;23.218;2023-08-07T11:19:17;93984.45;;;26.20;42.40
43553;BME280;29153;42.696;23.218;2023-08-07T11:21:45;93982.74;;;26.40;40.62
43553;BME280;29153;42.696;23.218;2023-08-07T11:24:15;93982.34;;;26.38;44.38
43553;BME280;29153;42.696;23.218;2023-08-07T11:26:45;93978.09;;;26.51;39.97
43553;BME280;29153;42.696;23.218;2023-08-07T11:29:22;93988.00;;;26.74;43.13
43553;BME280;29153;42.696;23.218;2023-08-07T11:31:45;93984.48;;;27.09;42.43
43553;BME280;29153;42.696;23.218;2023-08-07T11:34:13;93984.09;;;27.17;39.53
43553;BME280;29153;42.696;23.218;2023-08-07T11:36:44;93978.68;;;26.82;42.14
43553;BME280;29153;42.696;23.218;2023-08-07T11:39:15;93970.72;;;26.44;42.47
43553;BME280;29153;42.696;23.218;2023-08-07T11:41:43;93971.28;;;26.58;42.04
43553;BME280;29153;42.696;23.218;2023-08-07T11:44:11;93974.03;;;26.93;44.61
43553;BME280;29153;42.696;23.218;2023-08-07T11:46:39;93976.12;;;27.18;42.53
43553;BME280;29153;42.696;23.218;2023-08-07T11:49:08;93973.35;;;27.40;40.43
43553;BME280;29153;42.696;23.218;2023-08-07T11:51:39;93968.94;;;27.81;41.50
43553;BME280;29153;42.696;23.218;2023-08-07T11:54:07;93969.45;;;27.98;40.49
43553;BME280;29153;42.696;23.218;2023-08-07T11:56:35;93970.79;;;28.05;39.71
43553;BME280;29153;42.696;23.218;2023-08-07T11:59:03;93979.41;;;27.90;40.86
43553;BME280;29153;42.696;23.218;2023-08-07T12:01:30;93971.97;;;27.57;38.69
43553;BME280;29153;42.696;23.218;2023-08-07T12:04:10;93968.67;;;27.44;41.27
43553;BME280;29153;42.696;23.218;2023-08-07T12:06:45;93971.23;;;27.36;43.70
43553;BME280;29153;42.696;23.218;2023-08-07T12:09:11;93907.64;;;26.59;40.46
43553;BME280;29153;42.696;23.218;2023-08-07T12:11:40;93964.31;;;26.92;43.67
43553;BME280;29153;42.696;23.218;2023-08-07T12:14:08;93968.39;;;26.60;40.92
43553;BME280;29153;42.696;23.218;2023-08-07T12:16:35;93968.18;;;26.66;41.10
43553;BME280;29153;42.696;23.218;2023-08-07T12:19:03;93962.74;;;26.70;42.71
43553;BME280;29153;42.696;23.218;2023-08-07T12:21:31;93960.61;;;26.80;43.13
43553;BME280;29153;42.696;23.218;2023-08-07T12:23:59;93959.45;;;26.67;41.68
43553;BME280;29153;42.696;23.218;2023-08-07T12:26:27;93956.36;;;26.44;42.02
43553;BME280;29153;42.696;23.218;2023-08-07T12:28:54;93957.52;;;26.46;41.31
43553;BME280;29153;42.696;23.218;2023-08-07T12:31:21;93952.67;;;26.60;43.76
43553;BME280;29153;42.696;23.218;2023-08-07T12:33:49;93953.45;;;26.64;44.99
43553;BME280;29153;42.696;23.218;2023-08-07T12:36:16;93962.72;;;26.20;42.87
43553;BME280;29153;42.696;23.218;2023-08-07T12:38:43;93963.64;;;26.11;43.92
43553;BME280;29153;42.696;23.218;2023-08-07T12:41:11;93960.13;;;25.97;45.37
43553;BME280;29153;42.696;23.218;2023-08-07T12:43:40;93967.55;;;26.17;45.27
43553;BME280;29153;42.696;23.218;2023-08-07T12:46:08;93966.63;;;26.26;44.32
43553;BME280;29153;42.696;23.218;2023-08-07T12:48:36;93972.56;;;26.15;46.09
43553;BME280;29153;42.696;23.218;2023-08-07T12:51:05;93970.79;;;25.96;47.13
43553;BME280;29153;42.696;23.218;2023-08-07T12:53:32;93967.71;;;26.11;47.14
43553;BME280;29153;42.696;23.218;2023-08-07T12:56:00;93972.36;;;26.07;46.04
43553;BME280;29153;42.696;23.218;2023-08-07T12:58:29;93975.59;;;25.82;47.17